createdAt,value
2023-02-23T00:00:45.135Z,96343.77
2023-02-23T00:03:44.282Z,96342.48
2023-02-23T00:06:40.212Z,96342.86
2023-02-23T00:09:56.081Z,96339.35
2023-02-23T00:12:52.145Z,96342.48
2023-02-23T00:16:41.181Z,96347.22
2023-02-23T00:19:56.185Z,96352.67
2023-02-23T00:23:29.425Z,96351.09
2023-02-23T00:26:56.158Z,96343.73
2023-02-23T00:30:24.089Z,96345.68
2023-02-23T00:33:38.155Z,96340.77
2023-02-23T00:36:39.143Z,96343.69
2023-02-23T00:40:10.104Z,96342.37
2023-02-23T00:43:27.126Z,96344.36
2023-02-23T00:47:07.081Z,96347.89
2023-02-23T00:50:24.250Z,96347.61
2023-02-23T00:53:57.144Z,96348.33
2023-02-23T00:57:27.093Z,96350.69
2023-02-23T01:01:00.191Z,96349.48
2023-02-23T01:04:13.117Z,96348.16
2023-02-23T01:07:47.151Z,96347.70
2023-02-23T01:11:14.097Z,96346.21
2023-02-23T01:14:33.188Z,96347.25
2023-02-23T01:17:46.149Z,96344.45
2023-02-23T01:21:16.354Z,96347.23
2023-02-23T01:25:00.166Z,96348.48
2023-02-23T01:28:09.369Z,96344.35
2023-02-23T01:31:21.706Z,96345.21
2023-02-23T01:34:33.194Z,96341.70
2023-02-23T01:38:14.479Z,96341.61
2023-02-23T01:41:57.082Z,96338.94
2023-02-23T01:46:01.410Z,96337.19
2023-02-23T01:49:21.106Z,96336.02
2023-02-23T01:52:44.148Z,96331.91
2023-02-23T01:56:31.073Z,96334.01
2023-02-23T02:00:03.168Z,96335.08
2023-02-23T02:03:28.928Z,96334.80
2023-02-23T02:07:22.762Z,96339.35
2023-02-23T02:11:08.131Z,96341.95
2023-02-23T02:14:28.177Z,96340.56
2023-02-23T02:17:58.059Z,96338.72
2023-02-23T02:21:43.167Z,96340.11
2023-02-23T02:25:33.803Z,96339.29
2023-02-23T02:28:57.152Z,96340.15
2023-02-23T02:32:12.144Z,96336.11
2023-02-23T02:35:26.133Z,96335.30
2023-02-23T02:42:31.081Z,96339.67
2023-02-23T02:45:57.222Z,96338.70
2023-02-23T02:49:19.066Z,96339.96
2023-02-23T02:52:32.044Z,96344.38
2023-02-23T02:56:06.392Z,96350.48
2023-02-23T03:00:02.155Z,96348.89
2023-02-23T03:03:24.076Z,96349.61
2023-02-23T03:06:46.187Z,96348.91
2023-02-23T03:10:21.081Z,96348.71
2023-02-23T03:13:34.157Z,96354.44
2023-02-23T03:16:46.122Z,96356.44
2023-02-23T03:19:45.140Z,96358.48
2023-02-23T03:23:19.073Z,96360.10
2023-02-23T03:26:38.171Z,96359.60
2023-02-23T03:30:12.126Z,96350.90
2023-02-23T03:33:42.139Z,96352.60
2023-02-23T03:37:00.112Z,96353.91
2023-02-23T03:40:30.139Z,96354.48
2023-02-23T03:43:38.181Z,96356.33
2023-02-23T03:47:14.133Z,96354.68
2023-02-23T03:50:46.152Z,96355.41
2023-02-23T03:54:01.077Z,96355.30
2023-02-23T03:57:10.148Z,96352.94
2023-02-23T04:00:39.161Z,96358.86
2023-02-23T04:04:16.288Z,96355.23
2023-02-23T04:08:00.028Z,96355.20
2023-02-23T04:10:54.122Z,96353.85
2023-02-23T04:14:20.431Z,96359.46
2023-02-23T04:17:47.987Z,96358.34
2023-02-23T04:20:31.112Z,96356.61
2023-02-23T04:22:59.146Z,96360.13
2023-02-23T04:25:28.454Z,96361.75
2023-02-23T04:27:56.478Z,96359.89
2023-02-23T04:30:25.957Z,96359.02
2023-02-23T04:32:54.739Z,96362.06
2023-02-23T04:35:22.897Z,96362.52
2023-02-23T04:41:46.161Z,96358.02
2023-02-23T04:45:24.466Z,96357.94
2023-02-23T04:49:04.165Z,96355.73
2023-02-23T04:52:50.213Z,96361.29
2023-02-23T04:56:51.972Z,96358.80
2023-02-23T05:00:39.113Z,96362.75
2023-02-23T05:04:26.257Z,96357.18
2023-02-23T05:07:56.074Z,96361.58
2023-02-23T05:11:31.882Z,96367.15
2023-02-23T05:14:36.431Z,96364.13
2023-02-23T05:18:18.142Z,96370.88
2023-02-23T05:21:53.093Z,96372.64
2023-02-23T05:24:33.100Z,96374.65
2023-02-23T05:27:40.152Z,96375.48
2023-02-23T05:30:53.584Z,96378.90
2023-02-23T05:33:58.134Z,96384.48
2023-02-23T05:37:15.144Z,96383.20
2023-02-23T05:40:33.079Z,96385.95
2023-02-23T05:48:19.193Z,96394.15
2023-02-23T05:51:08.001Z,96395.31
2023-02-23T05:54:37.534Z,96398.77
2023-02-23T05:57:58.107Z,96405.54
2023-02-23T06:00:56.108Z,96406.49
2023-02-23T06:04:45.154Z,96408.89
2023-02-23T06:11:48.311Z,96419.41
2023-02-23T06:15:24.673Z,96419.77
2023-02-23T06:19:14.151Z,96429.44
2023-02-23T06:22:03.012Z,96428.81
2023-02-23T06:24:30.834Z,96428.11
2023-02-23T06:26:58.765Z,96427.64
2023-02-23T06:29:27.219Z,96428.55
2023-02-23T06:31:55.417Z,96427.40
2023-02-23T06:34:23.356Z,96429.93
2023-02-23T06:36:51.474Z,96426.20
2023-02-23T06:39:19.503Z,96433.01
2023-02-23T06:41:47.677Z,96435.02
2023-02-23T06:44:15.756Z,96434.23
2023-02-23T06:46:43.761Z,96432.84
2023-02-23T06:49:13.152Z,96435.10
2023-02-23T06:51:42.635Z,96431.64
2023-02-23T06:54:11.101Z,96431.13
2023-02-23T06:56:39.102Z,96432.55
2023-02-23T06:59:07.480Z,96432.23
2023-02-23T07:01:36.086Z,96433.89
2023-02-23T07:04:05.524Z,96430.73
2023-02-23T07:06:33.696Z,96432.78
2023-02-23T07:09:01.570Z,96429.61
2023-02-23T07:11:29.561Z,96429.23
2023-02-23T07:13:58.732Z,96431.05
2023-02-23T07:16:32.767Z,96430.27
2023-02-23T07:19:04.834Z,96432.82
2023-02-23T07:21:38.849Z,96430.32
2023-02-23T07:24:10.173Z,96431.55
2023-02-23T07:26:41.031Z,96434.21
2023-02-23T07:29:12.566Z,96431.08
2023-02-23T07:31:50.363Z,96433.46
2023-02-23T07:34:29.459Z,96430.06
2023-02-23T07:37:01.098Z,96431.27
2023-02-23T07:39:32.030Z,96428.70
2023-02-23T07:42:09.748Z,96427.73
2023-02-23T07:44:43.812Z,96426.71
2023-02-23T07:47:17.938Z,96427.85
2023-02-23T07:49:48.599Z,96425.06
2023-02-23T07:52:23.494Z,96429.77
2023-02-23T07:54:59.745Z,96422.98
2023-02-23T07:57:31.724Z,96428.33
2023-02-23T08:00:08.232Z,96422.04
2023-02-23T08:02:43.204Z,96425.14
2023-02-23T08:05:31.098Z,96426.63
2023-02-23T08:08:46.994Z,96424.19
2023-02-23T08:11:16.057Z,96424.30
2023-02-23T08:13:54.264Z,96424.10
2023-02-23T08:16:37.870Z,96418.16
2023-02-23T08:19:34.345Z,96418.65
2023-02-23T08:22:15.214Z,96416.66
2023-02-23T08:24:51.792Z,96420.05
2023-02-23T08:27:52.582Z,96421.37
2023-02-23T08:30:41.473Z,96419.84
2023-02-23T08:34:18.425Z,96416.23
2023-02-23T08:46:38.470Z,96417.33
2023-02-23T08:49:51.971Z,96415.47
2023-02-23T08:52:25.613Z,96415.22
2023-02-23T08:54:55.104Z,96419.27
2023-02-23T08:57:25.153Z,96417.40
2023-02-23T09:41:33.835Z,96409.17
2023-02-23T09:53:18.928Z,96413.34
2023-02-23T09:56:48.879Z,96411.91
2023-02-23T09:59:46.249Z,96408.54
2023-02-23T10:12:18.376Z,96406.63
2023-02-23T10:16:01.409Z,96402.48
2023-02-23T10:18:50.398Z,96403.41
2023-02-23T10:21:39.500Z,96398.97
2023-02-23T10:24:31.671Z,96400.89
2023-02-23T10:27:24.555Z,96402.31
2023-02-23T10:30:04.883Z,96403.91
2023-02-23T10:33:04.671Z,96402.08
2023-02-23T10:36:03.833Z,96394.08
2023-02-23T10:38:42.871Z,96393.20
2023-02-23T10:41:14.706Z,96387.88
2023-02-23T10:43:44.416Z,96383.77
2023-02-23T10:46:21.236Z,96383.10
2023-02-23T10:48:52.973Z,96382.13
2023-02-23T10:51:28.444Z,96378.31
2023-02-23T10:54:05.004Z,96371.85
2023-02-23T10:56:46.289Z,96370.52
2023-02-23T10:59:20.557Z,96368.33
2023-02-23T11:02:01.513Z,96367.13
2023-02-23T11:04:34.994Z,96359.98
2023-02-23T11:07:17.839Z,96359.04
2023-02-23T11:09:48.133Z,96354.98
2023-02-23T11:12:22.524Z,96351.30
2023-02-23T11:14:53.009Z,96351.05
2023-02-23T11:17:29.706Z,96348.38
2023-02-23T11:20:02.822Z,96343.30
2023-02-23T11:22:36.293Z,96339.11
2023-02-23T11:25:17.416Z,96337.77
2023-02-23T11:27:51.315Z,96337.04
2023-02-23T11:30:24.754Z,96339.08
2023-02-23T11:32:56.216Z,96340.48
2023-02-23T11:35:30.197Z,96338.50
2023-02-23T11:37:58.398Z,96337.41
2023-02-23T11:40:31.420Z,96334.21
2023-02-23T11:43:16.905Z,96336.21
2023-02-23T11:45:48.807Z,96335.23
2023-02-23T11:48:28.844Z,96331.77
2023-02-23T11:50:57.981Z,96330.99
2023-02-23T11:54:12.478Z,96339.61
2023-02-23T11:57:50.200Z,96336.05
2023-02-23T12:01:58.788Z,96334.80
2023-02-23T12:05:01.374Z,96333.82
2023-02-23T12:08:27.574Z,96331.83
2023-02-23T12:11:39.800Z,96323.83
2023-02-23T12:14:23.662Z,96323.21
2023-02-23T12:16:57.420Z,96319.20
2023-02-23T12:19:33.354Z,96320.09
2023-02-23T12:22:14.078Z,96319.02
2023-02-23T12:25:07.485Z,96316.11
2023-02-23T12:28:18.316Z,96313.38
2023-02-23T12:30:54.915Z,96309.01
2023-02-23T12:33:45.115Z,96304.13
2023-02-23T12:36:37.990Z,96306.88
2023-02-23T12:39:31.360Z,96304.48
2023-02-23T12:42:26.324Z,96299.92
2023-02-23T12:45:04.367Z,96296.59
2023-02-23T12:47:40.747Z,96296.91
2023-02-23T12:50:17.120Z,96297.28
2023-02-23T12:53:07.208Z,96297.04
2023-02-23T12:55:52.305Z,96296.80
2023-02-23T12:58:41.506Z,96299.61
2023-02-23T13:01:17.708Z,96293.15
2023-02-23T13:04:22.517Z,96297.73
2023-02-23T13:07:11.993Z,96295.27
2023-02-23T13:10:21.907Z,96291.96
2023-02-23T13:13:17.460Z,96290.07
2023-02-23T13:16:02.605Z,96291.53
2023-02-23T13:18:49.621Z,96283.93
2023-02-23T13:22:08.897Z,96283.83
2023-02-23T13:24:49.558Z,96284.41
2023-02-23T13:27:38.513Z,96284.54
2023-02-23T13:30:12.039Z,96285.52
2023-02-23T13:32:42.377Z,96286.45
2023-02-23T13:35:17.920Z,96283.67
2023-02-23T13:38:00.711Z,96282.45
2023-02-23T13:40:42.105Z,96277.80
2023-02-23T13:43:24.326Z,96278.08
2023-02-23T13:46:14.957Z,96276.45
2023-02-23T13:48:57.344Z,96276.17
2023-02-23T13:51:54.128Z,96279.98
2023-02-23T13:54:25.599Z,96277.70
2023-02-23T13:57:13.391Z,96276.32
2023-02-23T13:59:47.892Z,96273.31
2023-02-23T14:02:35.076Z,96271.02
2023-02-23T14:05:24.922Z,96269.90
2023-02-23T14:07:56.758Z,96268.33
2023-02-23T14:10:28.693Z,96271.55
2023-02-23T14:13:24.656Z,96271.81
2023-02-23T14:16:17.712Z,96272.82
2023-02-23T14:19:08.672Z,96275.73
2023-02-23T14:21:49.799Z,96278.58
2023-02-23T14:24:24.468Z,96278.14
2023-02-23T14:27:40.335Z,96277.57
2023-02-23T14:30:21.877Z,96278.02
2023-02-23T14:32:50.781Z,96277.05
2023-02-23T14:35:45.897Z,96276.73
2023-02-23T14:38:47.090Z,96278.60
2023-02-23T14:41:25.987Z,96276.45
2023-02-23T14:44:03.959Z,96275.21
2023-02-23T14:46:35.131Z,96271.48
2023-02-23T14:49:10.345Z,96272.02
2023-02-23T14:51:44.877Z,96270.80
2023-02-23T15:10:43.248Z,96255.98
2023-02-23T15:13:54.038Z,96260.48
2023-02-23T15:16:35.880Z,96260.14
2023-02-23T15:19:50.578Z,96260.71
2023-02-23T15:23:41.273Z,96258.11
2023-02-23T15:27:36.166Z,96256.89
2023-02-23T15:30:33.769Z,96261.52
2023-02-23T15:33:13.052Z,96260.45
2023-02-23T15:36:20.430Z,96260.41
2023-02-23T15:39:00.866Z,96263.12
2023-02-23T15:51:07.412Z,96260.95
2023-02-23T15:54:16.367Z,96263.89
2023-02-23T15:57:09.018Z,96263.98
2023-02-23T16:00:33.486Z,96262.96
2023-02-23T16:03:31.502Z,96269.59
2023-02-23T16:06:08.525Z,96271.23
2023-02-23T16:09:02.008Z,96268.70
2023-02-23T16:11:46.909Z,96270.61
2023-02-23T16:14:21.769Z,96269.36
2023-02-23T16:17:17.401Z,96269.21
2023-02-23T16:19:51.850Z,96271.35
2023-02-23T16:22:27.804Z,96271.82
2023-02-23T16:25:05.184Z,96271.75
2023-02-23T16:27:33.711Z,96272.41
2023-02-23T16:30:24.162Z,96275.66
2023-02-23T16:33:13.526Z,96272.42
2023-02-23T16:35:48.040Z,96273.11
2023-02-23T16:38:26.034Z,96278.41
2023-02-23T16:40:55.349Z,96273.27
2023-02-23T16:43:23.602Z,96272.63
2023-02-23T16:45:52.071Z,96273.50
2023-02-23T16:48:20.232Z,96273.90
2023-02-23T16:50:48.947Z,96275.88
2023-02-23T16:53:18.133Z,96274.52
2023-02-23T16:55:52.101Z,96271.96
2023-02-23T16:58:24.818Z,96276.63
2023-02-23T17:00:53.825Z,96277.16
2023-02-23T17:03:27.220Z,96280.83
2023-02-23T17:05:55.203Z,96283.64
2023-02-23T17:08:24.495Z,96285.56
2023-02-23T17:10:56.166Z,96285.20
2023-02-23T17:13:33.378Z,96289.45
2023-02-23T17:16:09.514Z,96282.15
2023-02-23T17:18:42.952Z,96277.95
2023-02-23T17:21:50.217Z,96283.13
2023-02-23T17:24:18.301Z,96281.68
2023-02-23T17:26:46.474Z,96278.79
2023-02-23T17:29:14.582Z,96277.90
2023-02-23T17:31:42.732Z,96277.76
2023-02-23T17:34:12.330Z,96282.55
2023-02-23T17:36:40.501Z,96278.42
2023-02-23T17:39:55.572Z,96276.11
2023-02-23T17:43:15.351Z,96275.59
2023-02-23T17:45:43.422Z,96275.37
2023-02-23T17:48:11.527Z,96275.02
2023-02-23T17:50:39.460Z,96276.54
2023-02-23T17:53:07.306Z,96274.61
2023-02-23T17:55:35.265Z,96279.52
2023-02-23T17:58:03.180Z,96279.87
2023-02-23T18:00:35.631Z,96278.43
2023-02-23T18:03:03.907Z,96278.71
2023-02-23T18:05:31.919Z,96278.59
2023-02-23T18:07:59.782Z,96276.73
2023-02-23T18:10:27.729Z,96274.34
2023-02-23T18:12:55.595Z,96271.73
2023-02-23T18:15:23.535Z,96270.20
2023-02-23T18:17:54.647Z,96267.39
2023-02-23T18:20:22.871Z,96267.41
2023-02-23T18:22:50.883Z,96268.27
2023-02-23T18:25:29.757Z,96270.22
2023-02-23T18:27:58.515Z,96265.21
2023-02-23T18:30:27.237Z,96271.73
2023-02-23T18:33:02.962Z,96275.95
2023-02-23T18:35:37.383Z,96272.90
2023-02-23T18:38:10.305Z,96272.67
2023-02-23T18:40:39.863Z,96272.13
2023-02-23T18:43:08.735Z,96273.58
2023-02-23T18:45:37.258Z,96271.56
2023-02-23T18:48:10.522Z,96271.70
2023-02-23T18:50:38.493Z,96268.08
2023-02-23T18:53:08.885Z,96267.05
2023-02-23T18:55:38.529Z,96270.21
2023-02-23T18:58:06.503Z,96270.66
2023-02-23T19:00:40.265Z,96267.23
2023-02-23T19:03:10.261Z,96265.72
2023-02-23T19:05:44.910Z,96267.67
2023-02-23T19:08:16.792Z,96269.70
2023-02-23T19:10:45.047Z,96268.33
2023-02-23T19:13:12.880Z,96270.63
2023-02-23T19:15:40.775Z,96274.26
2023-02-23T19:18:08.955Z,96275.01
2023-02-23T19:20:36.816Z,96275.20
2023-02-23T19:23:05.605Z,96275.55
2023-02-23T19:25:33.649Z,96279.05
2023-02-23T19:28:01.446Z,96277.83
2023-02-23T19:30:29.418Z,96277.75
2023-02-23T19:33:00.570Z,96278.61
2023-02-23T19:35:28.965Z,96280.65
2023-02-23T19:38:23.654Z,96280.89
2023-02-23T19:41:58.252Z,96277.11
2023-02-23T19:45:33.219Z,96275.59
2023-02-23T19:49:07.254Z,96274.02
2023-02-23T19:52:47.194Z,96270.84
2023-02-23T19:59:52.346Z,96268.20
2023-02-23T20:03:21.179Z,96269.70
2023-02-23T20:10:42.195Z,96262.11
2023-02-23T20:14:27.246Z,96262.53
2023-02-23T20:18:11.169Z,96263.14
2023-02-23T20:21:44.566Z,96258.65
2023-02-23T20:25:18.274Z,96257.57
2023-02-23T20:28:50.464Z,96256.46
2023-02-23T20:32:19.376Z,96254.52
2023-02-23T20:35:51.151Z,96250.27
2023-02-23T20:39:36.241Z,96248.69
2023-02-23T20:43:06.159Z,96249.23
2023-02-23T20:46:41.200Z,96244.60
2023-02-23T20:50:16.209Z,96244.21
2023-02-23T20:53:53.232Z,96240.89
2023-02-23T20:57:26.226Z,96235.11
2023-02-23T21:01:05.517Z,96236.10
2023-02-23T21:04:57.737Z,96233.16
2023-02-23T21:08:51.161Z,96238.82
2023-02-23T21:12:26.958Z,96236.05
2023-02-23T21:16:18.320Z,96236.54
2023-02-23T21:19:53.192Z,96238.14
2023-02-23T21:23:28.276Z,96237.70
2023-02-23T21:27:05.299Z,96241.52
2023-02-23T21:30:40.223Z,96245.67
2023-02-23T21:34:09.176Z,96246.51
2023-02-23T21:37:52.220Z,96248.70
2023-02-23T21:41:22.721Z,96246.79
2023-02-23T21:48:24.234Z,96247.18
2023-02-23T21:58:35.046Z,96246.40
2023-02-23T22:02:04.297Z,96247.66
2023-02-23T22:19:27.367Z,96239.83
2023-02-23T22:26:17.229Z,96241.49
2023-02-23T22:29:50.170Z,96239.14
2023-02-23T22:33:24.371Z,96238.84
2023-02-23T22:37:09.196Z,96235.69
2023-02-23T22:40:34.174Z,96234.36
2023-02-23T22:44:10.609Z,96231.73
2023-02-23T22:51:15.222Z,96231.02
2023-02-23T23:02:16.166Z,96227.01
2023-02-23T23:05:43.219Z,96226.63
2023-02-23T23:12:48.280Z,96221.94
2023-02-23T23:25:54.179Z,96223.82
2023-02-23T23:28:24.362Z,96223.23
2023-02-23T23:30:52.320Z,96220.23
2023-02-23T23:33:20.513Z,96214.04
2023-02-23T23:35:49.189Z,96215.33
2023-02-23T23:38:17.289Z,96212.23
2023-02-23T23:40:47.048Z,96210.65
2023-02-23T23:43:15.120Z,96211.69
2023-02-23T23:45:43.867Z,96204.45
2023-02-23T23:48:12.006Z,96203.30
2023-02-23T23:50:39.886Z,96196.93
2023-02-23T23:53:07.721Z,96195.73
2023-02-23T23:55:36.207Z,96197.45
2023-02-23T23:58:06.917Z,96192.59
